sensor_id;sensor_type;location;lat;lon;timestamp;P1;durP1;ratioP1;P2;durP2;ratioP2
73779;SDS011;62093;37.614;15.072;2023-12-14T00:01:24;7.03;;;4.53;;
73779;SDS011;62093;37.614;15.072;2023-12-14T00:03:50;7.93;;;4.30;;
73779;SDS011;62093;37.614;15.072;2023-12-14T00:06:16;7.32;;;4.70;;
73779;SDS011;62093;37.614;15.072;2023-12-14T00:08:42;7.53;;;4.33;;
73779;SDS011;62093;37.614;15.072;2023-12-14T00:11:09;7.33;;;4.40;;
73779;SDS011;62093;37.614;15.072;2023-12-14T00:13:36;6.85;;;4.63;;
73779;SDS011;62093;37.614;15.072;2023-12-14T00:16:03;7.75;;;4.40;;
73779;SDS011;62093;37.614;15.072;2023-12-14T00:18:29;9.38;;;4.60;;
73779;SDS011;62093;37.614;15.072;2023-12-14T00:20:55;7.27;;;4.47;;
73779;SDS011;62093;37.614;15.072;2023-12-14T00:23:22;8.13;;;4.73;;
73779;SDS011;62093;37.614;15.072;2023-12-14T00:25:48;7.47;;;4.65;;
73779;SDS011;62093;37.614;15.072;2023-12-14T00:28:14;7.63;;;4.57;;
73779;SDS011;62093;37.614;15.072;2023-12-14T00:30:40;7.63;;;4.20;;
73779;SDS011;62093;37.614;15.072;2023-12-14T00:33:06;7.00;;;4.27;;
73779;SDS011;62093;37.614;15.072;2023-12-14T00:35:32;8.77;;;4.72;;
73779;SDS011;62093;37.614;15.072;2023-12-14T00:37:58;7.10;;;4.43;;
73779;SDS011;62093;37.614;15.072;2023-12-14T00:40:24;7.27;;;4.07;;
73779;SDS011;62093;37.614;15.072;2023-12-14T00:42:50;7.32;;;4.22;;
73779;SDS011;62093;37.614;15.072;2023-12-14T00:45:16;7.47;;;4.03;;
73779;SDS011;62093;37.614;15.072;2023-12-14T00:47:42;6.83;;;4.00;;
73779;SDS011;62093;37.614;15.072;2023-12-14T00:50:08;7.70;;;4.30;;
73779;SDS011;62093;37.614;15.072;2023-12-14T00:52:34;6.88;;;4.15;;
73779;SDS011;62093;37.614;15.072;2023-12-14T00:55:00;6.90;;;4.10;;
73779;SDS011;62093;37.614;15.072;2023-12-14T00:57:26;7.87;;;4.60;;
73779;SDS011;62093;37.614;15.072;2023-12-14T00:59:52;7.05;;;4.28;;
73779;SDS011;62093;37.614;15.072;2023-12-14T01:02:18;7.50;;;3.90;;
73779;SDS011;62093;37.614;15.072;2023-12-14T01:04:44;7.07;;;4.40;;
73779;SDS011;62093;37.614;15.072;2023-12-14T01:07:10;6.80;;;4.05;;
73779;SDS011;62093;37.614;15.072;2023-12-14T01:09:35;6.95;;;4.05;;
73779;SDS011;62093;37.614;15.072;2023-12-14T01:12:01;7.90;;;4.43;;
73779;SDS011;62093;37.614;15.072;2023-12-14T01:14:28;7.47;;;4.50;;
73779;SDS011;62093;37.614;15.072;2023-12-14T01:16:55;8.20;;;4.40;;
73779;SDS011;62093;37.614;15.072;2023-12-14T01:19:21;8.00;;;4.40;;
73779;SDS011;62093;37.614;15.072;2023-12-14T01:21:47;8.20;;;4.40;;
73779;SDS011;62093;37.614;15.072;2023-12-14T01:24:12;7.75;;;4.10;;
73779;SDS011;62093;37.614;15.072;2023-12-14T01:26:39;7.65;;;4.28;;
73779;SDS011;62093;37.614;15.072;2023-12-14T01:29:05;7.50;;;4.10;;
73779;SDS011;62093;37.614;15.072;2023-12-14T01:31:31;7.32;;;4.22;;
73779;SDS011;62093;37.614;15.072;2023-12-14T01:33:57;7.13;;;3.78;;
73779;SDS011;62093;37.614;15.072;2023-12-14T01:36:24;6.82;;;3.88;;
73779;SDS011;62093;37.614;15.072;2023-12-14T01:38:51;6.43;;;4.03;;
73779;SDS011;62093;37.614;15.072;2023-12-14T01:41:17;6.35;;;4.05;;
73779;SDS011;62093;37.614;15.072;2023-12-14T01:43:44;7.78;;;4.00;;
73779;SDS011;62093;37.614;15.072;2023-12-14T01:46:10;6.78;;;4.20;;
73779;SDS011;62093;37.614;15.072;2023-12-14T01:48:38;7.03;;;3.90;;
73779;SDS011;62093;37.614;15.072;2023-12-14T01:51:04;6.90;;;4.00;;
73779;SDS011;62093;37.614;15.072;2023-12-14T01:53:30;7.97;;;4.13;;
73779;SDS011;62093;37.614;15.072;2023-12-14T01:55:56;8.13;;;3.97;;
73779;SDS011;62093;37.614;15.072;2023-12-14T01:58:22;6.93;;;3.92;;
73779;SDS011;62093;37.614;15.072;2023-12-14T02:03:26;6.70;;;3.58;;
73779;SDS011;62093;37.614;15.072;2023-12-14T02:05:51;7.07;;;3.60;;
73779;SDS011;62093;37.614;15.072;2023-12-14T02:08:17;6.90;;;4.20;;
73779;SDS011;62093;37.614;15.072;2023-12-14T02:10:43;6.53;;;3.60;;
73779;SDS011;62093;37.614;15.072;2023-12-14T02:13:09;6.85;;;3.85;;
73779;SDS011;62093;37.614;15.072;2023-12-14T02:15:35;7.35;;;3.80;;
73779;SDS011;62093;37.614;15.072;2023-12-14T02:18:01;6.75;;;3.92;;
73779;SDS011;62093;37.614;15.072;2023-12-14T02:20:27;7.47;;;3.60;;
73779;SDS011;62093;37.614;15.072;2023-12-14T02:22:56;7.55;;;3.85;;
73779;SDS011;62093;37.614;15.072;2023-12-14T02:25:23;6.75;;;3.72;;
73779;SDS011;62093;37.614;15.072;2023-12-14T02:27:49;6.75;;;4.03;;
73779;SDS011;62093;37.614;15.072;2023-12-14T02:30:17;6.77;;;3.77;;
73779;SDS011;62093;37.614;15.072;2023-12-14T02:32:43;6.40;;;3.60;;
73779;SDS011;62093;37.614;15.072;2023-12-14T02:35:09;6.43;;;3.90;;
73779;SDS011;62093;37.614;15.072;2023-12-14T02:37:35;7.15;;;4.03;;
73779;SDS011;62093;37.614;15.072;2023-12-14T02:40:06;7.10;;;4.28;;
73779;SDS011;62093;37.614;15.072;2023-12-14T02:42:33;6.80;;;4.13;;
73779;SDS011;62093;37.614;15.072;2023-12-14T02:44:59;6.95;;;3.90;;
73779;SDS011;62093;37.614;15.072;2023-12-14T02:47:27;8.35;;;4.25;;
73779;SDS011;62093;37.614;15.072;2023-12-14T02:49:54;7.10;;;3.63;;
73779;SDS011;62093;37.614;15.072;2023-12-14T02:52:20;7.68;;;4.10;;
73779;SDS011;62093;37.614;15.072;2023-12-14T02:54:46;7.43;;;4.10;;
73779;SDS011;62093;37.614;15.072;2023-12-14T02:57:12;6.50;;;3.72;;
73779;SDS011;62093;37.614;15.072;2023-12-14T02:59:38;6.18;;;3.65;;
73779;SDS011;62093;37.614;15.072;2023-12-14T03:02:05;6.00;;;3.70;;
73779;SDS011;62093;37.614;15.072;2023-12-14T03:04:31;8.20;;;4.27;;
73779;SDS011;62093;37.614;15.072;2023-12-14T03:06:57;6.53;;;3.90;;
73779;SDS011;62093;37.614;15.072;2023-12-14T03:09:30;6.65;;;3.67;;
73779;SDS011;62093;37.614;15.072;2023-12-14T03:11:56;6.80;;;3.78;;
73779;SDS011;62093;37.614;15.072;2023-12-14T03:14:22;7.10;;;3.67;;
73779;SDS011;62093;37.614;15.072;2023-12-14T03:16:48;7.55;;;3.60;;
73779;SDS011;62093;37.614;15.072;2023-12-14T03:19:15;6.97;;;3.58;;
73779;SDS011;62093;37.614;15.072;2023-12-14T03:21:44;7.57;;;3.85;;
73779;SDS011;62093;37.614;15.072;2023-12-14T03:24:10;6.68;;;3.80;;
73779;SDS011;62093;37.614;15.072;2023-12-14T03:26:36;6.93;;;3.60;;
73779;SDS011;62093;37.614;15.072;2023-12-14T03:29:02;6.40;;;3.67;;
73779;SDS011;62093;37.614;15.072;2023-12-14T03:31:28;7.15;;;4.30;;
73779;SDS011;62093;37.614;15.072;2023-12-14T03:33:54;6.57;;;3.60;;
73779;SDS011;62093;37.614;15.072;2023-12-14T03:36:19;6.57;;;3.60;;
73779;SDS011;62093;37.614;15.072;2023-12-14T03:38:48;5.85;;;3.40;;
73779;SDS011;62093;37.614;15.072;2023-12-14T03:41:13;6.15;;;3.53;;
73779;SDS011;62093;37.614;15.072;2023-12-14T03:43:39;6.43;;;3.47;;
73779;SDS011;62093;37.614;15.072;2023-12-14T03:46:05;6.90;;;3.70;;
73779;SDS011;62093;37.614;15.072;2023-12-14T03:48:32;6.55;;;3.80;;
73779;SDS011;62093;37.614;15.072;2023-12-14T03:51:01;6.22;;;3.30;;
73779;SDS011;62093;37.614;15.072;2023-12-14T03:53:29;6.65;;;3.33;;
73779;SDS011;62093;37.614;15.072;2023-12-14T03:55:55;6.37;;;3.60;;
73779;SDS011;62093;37.614;15.072;2023-12-14T03:58:21;6.17;;;3.50;;
73779;SDS011;62093;37.614;15.072;2023-12-14T04:00:47;6.88;;;3.65;;
73779;SDS011;62093;37.614;15.072;2023-12-14T04:03:13;6.97;;;3.67;;
73779;SDS011;62093;37.614;15.072;2023-12-14T04:05:39;7.07;;;3.65;;
73779;SDS011;62093;37.614;15.072;2023-12-14T04:08:05;6.60;;;3.47;;
73779;SDS011;62093;37.614;15.072;2023-12-14T04:10:31;7.18;;;3.67;;
73779;SDS011;62093;37.614;15.072;2023-12-14T04:12:57;6.80;;;3.80;;
73779;SDS011;62093;37.614;15.072;2023-12-14T04:15:23;6.30;;;3.63;;
73779;SDS011;62093;37.614;15.072;2023-12-14T04:17:48;6.07;;;3.20;;
73779;SDS011;62093;37.614;15.072;2023-12-14T04:20:14;7.22;;;3.58;;
73779;SDS011;62093;37.614;15.072;2023-12-14T04:22:44;6.30;;;3.50;;
73779;SDS011;62093;37.614;15.072;2023-12-14T04:25:10;6.40;;;3.63;;
73779;SDS011;62093;37.614;15.072;2023-12-14T04:27:36;7.53;;;3.60;;
73779;SDS011;62093;37.614;15.072;2023-12-14T04:30:02;7.55;;;3.72;;
73779;SDS011;62093;37.614;15.072;2023-12-14T04:32:30;6.80;;;3.50;;
73779;SDS011;62093;37.614;15.072;2023-12-14T04:34:56;6.93;;;4.20;;
73779;SDS011;62093;37.614;15.072;2023-12-14T04:37:21;6.77;;;3.57;;
73779;SDS011;62093;37.614;15.072;2023-12-14T04:39:47;6.45;;;3.50;;
73779;SDS011;62093;37.614;15.072;2023-12-14T04:42:13;6.25;;;3.60;;
73779;SDS011;62093;37.614;15.072;2023-12-14T04:44:39;5.93;;;3.80;;
73779;SDS011;62093;37.614;15.072;2023-12-14T04:47:05;5.93;;;3.20;;
73779;SDS011;62093;37.614;15.072;2023-12-14T04:49:32;6.25;;;3.20;;
73779;SDS011;62093;37.614;15.072;2023-12-14T04:51:58;5.65;;;3.30;;
73779;SDS011;62093;37.614;15.072;2023-12-14T04:54:24;6.27;;;3.37;;
73779;SDS011;62093;37.614;15.072;2023-12-14T04:56:50;6.45;;;3.70;;
73779;SDS011;62093;37.614;15.072;2023-12-14T04:59:16;6.20;;;3.58;;
73779;SDS011;62093;37.614;15.072;2023-12-14T05:01:42;7.47;;;3.53;;
73779;SDS011;62093;37.614;15.072;2023-12-14T05:04:08;6.73;;;3.20;;
73779;SDS011;62093;37.614;15.072;2023-12-14T05:06:34;6.20;;;3.53;;
73779;SDS011;62093;37.614;15.072;2023-12-14T05:09:00;6.55;;;3.78;;
73779;SDS011;62093;37.614;15.072;2023-12-14T05:11:30;5.93;;;3.38;;
73779;SDS011;62093;37.614;15.072;2023-12-14T05:13:56;6.90;;;3.97;;
73779;SDS011;62093;37.614;15.072;2023-12-14T05:16:23;6.87;;;3.40;;
73779;SDS011;62093;37.614;15.072;2023-12-14T05:18:53;6.60;;;3.25;;
73779;SDS011;62093;37.614;15.072;2023-12-14T05:21:19;6.18;;;3.45;;
73779;SDS011;62093;37.614;15.072;2023-12-14T05:23:45;7.20;;;3.53;;
73779;SDS011;62093;37.614;15.072;2023-12-14T05:26:11;6.97;;;3.23;;
73779;SDS011;62093;37.614;15.072;2023-12-14T05:28:37;6.53;;;3.50;;
73779;SDS011;62093;37.614;15.072;2023-12-14T05:31:03;6.43;;;3.42;;
73779;SDS011;62093;37.614;15.072;2023-12-14T05:33:29;6.82;;;3.20;;
73779;SDS011;62093;37.614;15.072;2023-12-14T05:35:56;6.83;;;3.87;;
73779;SDS011;62093;37.614;15.072;2023-12-14T05:38:22;6.05;;;3.40;;
73779;SDS011;62093;37.614;15.072;2023-12-14T05:40:48;6.00;;;3.25;;
73779;SDS011;62093;37.614;15.072;2023-12-14T05:43:14;5.88;;;3.17;;
73779;SDS011;62093;37.614;15.072;2023-12-14T05:45:40;5.68;;;3.45;;
73779;SDS011;62093;37.614;15.072;2023-12-14T05:48:06;5.73;;;3.40;;
73779;SDS011;62093;37.614;15.072;2023-12-14T05:50:32;6.53;;;3.70;;
73779;SDS011;62093;37.614;15.072;2023-12-14T05:52:58;6.70;;;3.80;;
73779;SDS011;62093;37.614;15.072;2023-12-14T05:55:24;6.63;;;3.60;;
73779;SDS011;62093;37.614;15.072;2023-12-14T05:57:50;6.57;;;3.50;;
73779;SDS011;62093;37.614;15.072;2023-12-14T06:00:17;7.22;;;3.33;;
73779;SDS011;62093;37.614;15.072;2023-12-14T06:02:43;6.33;;;3.20;;
73779;SDS011;62093;37.614;15.072;2023-12-14T06:05:09;6.03;;;3.05;;
73779;SDS011;62093;37.614;15.072;2023-12-14T06:07:36;5.95;;;3.20;;
73779;SDS011;62093;37.614;15.072;2023-12-14T06:10:03;5.80;;;3.03;;
73779;SDS011;62093;37.614;15.072;2023-12-14T06:12:29;6.32;;;3.10;;
73779;SDS011;62093;37.614;15.072;2023-12-14T06:14:55;6.10;;;3.10;;
73779;SDS011;62093;37.614;15.072;2023-12-14T06:17:21;6.90;;;3.42;;
73779;SDS011;62093;37.614;15.072;2023-12-14T06:19:47;5.13;;;2.85;;
73779;SDS011;62093;37.614;15.072;2023-12-14T06:22:13;6.15;;;3.00;;
73779;SDS011;62093;37.614;15.072;2023-12-14T06:24:39;5.20;;;2.77;;
73779;SDS011;62093;37.614;15.072;2023-12-14T06:27:05;5.78;;;3.05;;
73779;SDS011;62093;37.614;15.072;2023-12-14T06:29:31;5.90;;;2.95;;
73779;SDS011;62093;37.614;15.072;2023-12-14T06:31:57;5.77;;;2.90;;
73779;SDS011;62093;37.614;15.072;2023-12-14T06:34:23;6.13;;;3.10;;
73779;SDS011;62093;37.614;15.072;2023-12-14T06:36:49;5.22;;;2.88;;
73779;SDS011;62093;37.614;15.072;2023-12-14T06:39:15;5.32;;;3.10;;
73779;SDS011;62093;37.614;15.072;2023-12-14T06:41:41;6.22;;;3.15;;
73779;SDS011;62093;37.614;15.072;2023-12-14T06:44:07;5.30;;;2.83;;
73779;SDS011;62093;37.614;15.072;2023-12-14T06:46:34;5.50;;;2.70;;
73779;SDS011;62093;37.614;15.072;2023-12-14T06:49:01;5.60;;;2.95;;
73779;SDS011;62093;37.614;15.072;2023-12-14T06:51:27;6.18;;;2.85;;
73779;SDS011;62093;37.614;15.072;2023-12-14T06:53:53;6.40;;;3.40;;
73779;SDS011;62093;37.614;15.072;2023-12-14T06:56:19;5.78;;;3.15;;
73779;SDS011;62093;37.614;15.072;2023-12-14T06:58:45;6.72;;;3.33;;
73779;SDS011;62093;37.614;15.072;2023-12-14T07:01:15;6.50;;;3.40;;
73779;SDS011;62093;37.614;15.072;2023-12-14T07:03:43;7.63;;;3.80;;
73779;SDS011;62093;37.614;15.072;2023-12-14T07:06:13;6.47;;;3.00;;
73779;SDS011;62093;37.614;15.072;2023-12-14T07:08:43;5.90;;;2.90;;
73779;SDS011;62093;37.614;15.072;2023-12-14T07:11:10;6.15;;;3.00;;
73779;SDS011;62093;37.614;15.072;2023-12-14T07:13:37;6.10;;;3.07;;
73779;SDS011;62093;37.614;15.072;2023-12-14T07:16:07;5.80;;;3.30;;
73779;SDS011;62093;37.614;15.072;2023-12-14T07:18:37;6.72;;;3.50;;
73779;SDS011;62093;37.614;15.072;2023-12-14T07:21:04;5.85;;;3.30;;
73779;SDS011;62093;37.614;15.072;2023-12-14T07:23:30;5.53;;;3.10;;
73779;SDS011;62093;37.614;15.072;2023-12-14T07:25:56;6.50;;;3.27;;
73779;SDS011;62093;37.614;15.072;2023-12-14T07:28:22;5.50;;;3.15;;
73779;SDS011;62093;37.614;15.072;2023-12-14T07:30:48;5.72;;;3.35;;
73779;SDS011;62093;37.614;15.072;2023-12-14T07:33:15;5.75;;;3.10;;
73779;SDS011;62093;37.614;15.072;2023-12-14T07:35:41;5.60;;;2.92;;
73779;SDS011;62093;37.614;15.072;2023-12-14T07:38:07;5.97;;;3.27;;
73779;SDS011;62093;37.614;15.072;2023-12-14T07:40:34;5.75;;;3.40;;
73779;SDS011;62093;37.614;15.072;2023-12-14T07:43:00;5.88;;;3.10;;
73779;SDS011;62093;37.614;15.072;2023-12-14T07:45:26;6.05;;;3.35;;
73779;SDS011;62093;37.614;15.072;2023-12-14T07:47:51;5.57;;;2.70;;
73779;SDS011;62093;37.614;15.072;2023-12-14T07:50:17;5.95;;;3.03;;
73779;SDS011;62093;37.614;15.072;2023-12-14T07:52:44;6.22;;;3.22;;
73779;SDS011;62093;37.614;15.072;2023-12-14T07:55:10;5.88;;;3.08;;
73779;SDS011;62093;37.614;15.072;2023-12-14T07:57:39;5.73;;;2.97;;
73779;SDS011;62093;37.614;15.072;2023-12-14T08:00:05;5.90;;;3.00;;
73779;SDS011;62093;37.614;15.072;2023-12-14T08:02:34;6.35;;;3.00;;
73779;SDS011;62093;37.614;15.072;2023-12-14T08:05:00;6.70;;;2.97;;
73779;SDS011;62093;37.614;15.072;2023-12-14T08:07:26;6.57;;;3.28;;
73779;SDS011;62093;37.614;15.072;2023-12-14T08:09:55;6.57;;;3.00;;
73779;SDS011;62093;37.614;15.072;2023-12-14T08:12:22;5.50;;;3.35;;
73779;SDS011;62093;37.614;15.072;2023-12-14T08:14:48;6.20;;;3.30;;
73779;SDS011;62093;37.614;15.072;2023-12-14T08:17:14;6.55;;;2.80;;
73779;SDS011;62093;37.614;15.072;2023-12-14T08:19:40;5.30;;;2.80;;
73779;SDS011;62093;37.614;15.072;2023-12-14T08:22:06;5.65;;;2.67;;
73779;SDS011;62093;37.614;15.072;2023-12-14T08:24:32;6.00;;;2.65;;
73779;SDS011;62093;37.614;15.072;2023-12-14T08:26:58;6.20;;;2.80;;
73779;SDS011;62093;37.614;15.072;2023-12-14T08:29:24;5.20;;;3.10;;
73779;SDS011;62093;37.614;15.072;2023-12-14T08:31:50;6.30;;;3.20;;
73779;SDS011;62093;37.614;15.072;2023-12-14T08:34:16;5.78;;;2.88;;
73779;SDS011;62093;37.614;15.072;2023-12-14T08:36:42;5.33;;;2.80;;
73779;SDS011;62093;37.614;15.072;2023-12-14T08:39:08;5.93;;;3.30;;
73779;SDS011;62093;37.614;15.072;2023-12-14T08:41:34;5.47;;;3.10;;
73779;SDS011;62093;37.614;15.072;2023-12-14T08:44:00;5.97;;;2.90;;
73779;SDS011;62093;37.614;15.072;2023-12-14T08:46:26;5.30;;;3.00;;
73779;SDS011;62093;37.614;15.072;2023-12-14T08:48:51;6.32;;;3.33;;
73779;SDS011;62093;37.614;15.072;2023-12-14T08:51:18;5.82;;;2.92;;
73779;SDS011;62093;37.614;15.072;2023-12-14T08:53:45;5.63;;;3.17;;
73779;SDS011;62093;37.614;15.072;2023-12-14T08:56:11;6.47;;;3.10;;
73779;SDS011;62093;37.614;15.072;2023-12-14T08:58:37;6.80;;;3.20;;
73779;SDS011;62093;37.614;15.072;2023-12-14T09:01:03;5.68;;;3.00;;
73779;SDS011;62093;37.614;15.072;2023-12-14T09:03:29;6.37;;;3.33;;
73779;SDS011;62093;37.614;15.072;2023-12-14T09:05:55;7.32;;;3.15;;
73779;SDS011;62093;37.614;15.072;2023-12-14T09:08:21;5.80;;;3.17;;
73779;SDS011;62093;37.614;15.072;2023-12-14T09:10:47;6.13;;;3.10;;
73779;SDS011;62093;37.614;15.072;2023-12-14T09:13:13;6.47;;;3.33;;
73779;SDS011;62093;37.614;15.072;2023-12-14T09:15:39;5.97;;;3.25;;
73779;SDS011;62093;37.614;15.072;2023-12-14T09:18:05;5.75;;;3.35;;
73779;SDS011;62093;37.614;15.072;2023-12-14T09:20:31;6.28;;;2.92;;
73779;SDS011;62093;37.614;15.072;2023-12-14T09:22:58;6.47;;;3.50;;
73779;SDS011;62093;37.614;15.072;2023-12-14T09:25:24;6.82;;;3.83;;
73779;SDS011;62093;37.614;15.072;2023-12-14T09:27:50;6.70;;;3.33;;
73779;SDS011;62093;37.614;15.072;2023-12-14T09:30:16;5.60;;;2.85;;
73779;SDS011;62093;37.614;15.072;2023-12-14T09:32:42;5.97;;;2.88;;
73779;SDS011;62093;37.614;15.072;2023-12-14T09:35:08;5.93;;;3.07;;
73779;SDS011;62093;37.614;15.072;2023-12-14T09:37:34;5.88;;;3.13;;
73779;SDS011;62093;37.614;15.072;2023-12-14T09:40:01;6.20;;;3.22;;
73779;SDS011;62093;37.614;15.072;2023-12-14T09:42:27;6.45;;;2.90;;
73779;SDS011;62093;37.614;15.072;2023-12-14T09:44:54;6.18;;;2.72;;
73779;SDS011;62093;37.614;15.072;2023-12-14T09:47:21;6.40;;;2.73;;
73779;SDS011;62093;37.614;15.072;2023-12-14T09:49:47;6.13;;;2.90;;
73779;SDS011;62093;37.614;15.072;2023-12-14T09:52:14;6.30;;;2.70;;
73779;SDS011;62093;37.614;15.072;2023-12-14T09:54:40;5.60;;;2.70;;
73779;SDS011;62093;37.614;15.072;2023-12-14T09:57:06;7.00;;;3.35;;
73779;SDS011;62093;37.614;15.072;2023-12-14T09:59:32;5.57;;;2.47;;
73779;SDS011;62093;37.614;15.072;2023-12-14T10:02:08;5.07;;;2.90;;
73779;SDS011;62093;37.614;15.072;2023-12-14T10:04:38;5.90;;;2.65;;
73779;SDS011;62093;37.614;15.072;2023-12-14T10:07:04;5.57;;;2.95;;
73779;SDS011;62093;37.614;15.072;2023-12-14T10:09:32;6.20;;;2.80;;
73779;SDS011;62093;37.614;15.072;2023-12-14T10:12:04;6.35;;;2.65;;
73779;SDS011;62093;37.614;15.072;2023-12-14T10:14:30;5.78;;;3.10;;
73779;SDS011;62093;37.614;15.072;2023-12-14T10:16:57;5.18;;;2.70;;
73779;SDS011;62093;37.614;15.072;2023-12-14T10:19:24;5.13;;;2.55;;
73779;SDS011;62093;37.614;15.072;2023-12-14T10:21:50;5.23;;;2.77;;
73779;SDS011;62093;37.614;15.072;2023-12-14T10:24:16;5.97;;;2.92;;
73779;SDS011;62093;37.614;15.072;2023-12-14T10:26:46;6.78;;;2.90;;
73779;SDS011;62093;37.614;15.072;2023-12-14T10:29:12;6.05;;;3.05;;
73779;SDS011;62093;37.614;15.072;2023-12-14T10:31:38;7.00;;;3.08;;
73779;SDS011;62093;37.614;15.072;2023-12-14T10:34:05;5.20;;;2.90;;
73779;SDS011;62093;37.614;15.072;2023-12-14T10:36:31;6.07;;;3.00;;
73779;SDS011;62093;37.614;15.072;2023-12-14T10:38:58;5.85;;;2.97;;
73779;SDS011;62093;37.614;15.072;2023-12-14T10:41:26;5.25;;;2.60;;
73779;SDS011;62093;37.614;15.072;2023-12-14T10:43:55;5.80;;;2.67;;
73779;SDS011;62093;37.614;15.072;2023-12-14T10:46:23;5.77;;;3.00;;
73779;SDS011;62093;37.614;15.072;2023-12-14T10:48:50;5.72;;;2.70;;
73779;SDS011;62093;37.614;15.072;2023-12-14T10:51:20;6.60;;;2.90;;
73779;SDS011;62093;37.614;15.072;2023-12-14T10:53:47;5.20;;;2.85;;
73779;SDS011;62093;37.614;15.072;2023-12-14T10:56:15;6.30;;;2.55;;
73779;SDS011;62093;37.614;15.072;2023-12-14T10:58:46;6.70;;;3.03;;
73779;SDS011;62093;37.614;15.072;2023-12-14T11:01:20;5.57;;;2.78;;
73779;SDS011;62093;37.614;15.072;2023-12-14T11:03:49;5.10;;;2.72;;
73779;SDS011;62093;37.614;15.072;2023-12-14T11:06:28;6.22;;;3.08;;
73779;SDS011;62093;37.614;15.072;2023-12-14T11:08:59;4.97;;;2.83;;
73779;SDS011;62093;37.614;15.072;2023-12-14T11:14:15;5.30;;;2.60;;
73779;SDS011;62093;37.614;15.072;2023-12-14T11:16:44;5.53;;;3.00;;
73779;SDS011;62093;37.614;15.072;2023-12-14T11:21:47;6.35;;;2.95;;
73779;SDS011;62093;37.614;15.072;2023-12-14T11:24:20;5.23;;;3.13;;
73779;SDS011;62093;37.614;15.072;2023-12-14T11:26:50;5.80;;;2.90;;
73779;SDS011;62093;37.614;15.072;2023-12-14T11:29:19;5.22;;;2.80;;
73779;SDS011;62093;37.614;15.072;2023-12-14T11:31:47;5.60;;;2.70;;
73779;SDS011;62093;37.614;15.072;2023-12-14T11:34:16;5.28;;;2.40;;
73779;SDS011;62093;37.614;15.072;2023-12-14T11:36:42;5.03;;;2.70;;
73779;SDS011;62093;37.614;15.072;2023-12-14T11:39:11;5.63;;;2.72;;
73779;SDS011;62093;37.614;15.072;2023-12-14T11:41:36;4.78;;;2.50;;
73779;SDS011;62093;37.614;15.072;2023-12-14T11:44:04;5.45;;;2.47;;
73779;SDS011;62093;37.614;15.072;2023-12-14T11:46:30;5.50;;;2.80;;
73779;SDS011;62093;37.614;15.072;2023-12-14T11:48:57;5.27;;;2.67;;
73779;SDS011;62093;37.614;15.072;2023-12-14T11:51:24;4.85;;;2.58;;
73779;SDS011;62093;37.614;15.072;2023-12-14T11:53:55;5.50;;;2.70;;
73779;SDS011;62093;37.614;15.072;2023-12-14T11:56:21;5.18;;;2.58;;
73779;SDS011;62093;37.614;15.072;2023-12-14T11:58:50;6.80;;;2.80;;
73779;SDS011;62093;37.614;15.072;2023-12-14T12:01:17;6.10;;;2.60;;
73779;SDS011;62093;37.614;15.072;2023-12-14T12:03:44;5.50;;;2.70;;
73779;SDS011;62093;37.614;15.072;2023-12-14T12:06:21;5.15;;;2.50;;
73779;SDS011;62093;37.614;15.072;2023-12-14T12:08:48;5.97;;;2.73;;
73779;SDS011;62093;37.614;15.072;2023-12-14T12:11:17;5.15;;;2.50;;
73779;SDS011;62093;37.614;15.072;2023-12-14T12:13:44;5.72;;;2.80;;
73779;SDS011;62093;37.614;15.072;2023-12-14T12:16:15;5.22;;;2.60;;
73779;SDS011;62093;37.614;15.072;2023-12-14T12:18:41;5.07;;;2.57;;
73779;SDS011;62093;37.614;15.072;2023-12-14T12:21:07;5.00;;;2.50;;
73779;SDS011;62093;37.614;15.072;2023-12-14T12:23:35;5.22;;;2.55;;
73779;SDS011;62093;37.614;15.072;2023-12-14T12:26:00;6.05;;;2.70;;
73779;SDS011;62093;37.614;15.072;2023-12-14T12:28:27;5.60;;;2.93;;
73779;SDS011;62093;37.614;15.072;2023-12-14T12:30:53;4.80;;;2.33;;
73779;SDS011;62093;37.614;15.072;2023-12-14T12:33:19;4.88;;;2.50;;
73779;SDS011;62093;37.614;15.072;2023-12-14T12:35:45;5.10;;;2.42;;
73779;SDS011;62093;37.614;15.072;2023-12-14T12:38:11;5.93;;;2.67;;
73779;SDS011;62093;37.614;15.072;2023-12-14T12:40:37;5.53;;;2.47;;
73779;SDS011;62093;37.614;15.072;2023-12-14T12:43:04;5.07;;;2.22;;
73779;SDS011;62093;37.614;15.072;2023-12-14T12:45:30;5.55;;;2.22;;
73779;SDS011;62093;37.614;15.072;2023-12-14T12:47:57;5.03;;;2.72;;
73779;SDS011;62093;37.614;15.072;2023-12-14T12:50:23;4.80;;;2.57;;
73779;SDS011;62093;37.614;15.072;2023-12-14T12:52:49;5.25;;;2.60;;
73779;SDS011;62093;37.614;15.072;2023-12-14T12:55:16;6.00;;;2.45;;
73779;SDS011;62093;37.614;15.072;2023-12-14T12:57:42;6.40;;;2.70;;
73779;SDS011;62093;37.614;15.072;2023-12-14T13:00:08;5.05;;;2.50;;
73779;SDS011;62093;37.614;15.072;2023-12-14T13:02:41;5.50;;;2.60;;
73779;SDS011;62093;37.614;15.072;2023-12-14T13:05:09;5.38;;;2.13;;
73779;SDS011;62093;37.614;15.072;2023-12-14T13:07:35;5.78;;;2.50;;
73779;SDS011;62093;37.614;15.072;2023-12-14T13:10:03;5.13;;;2.67;;
73779;SDS011;62093;37.614;15.072;2023-12-14T13:12:31;5.20;;;2.60;;
73779;SDS011;62093;37.614;15.072;2023-12-14T13:14:58;5.13;;;2.10;;
73779;SDS011;62093;37.614;15.072;2023-12-14T13:17:25;5.70;;;2.50;;
73779;SDS011;62093;37.614;15.072;2023-12-14T13:19:51;4.50;;;2.30;;
73779;SDS011;62093;37.614;15.072;2023-12-14T13:22:17;5.75;;;2.40;;
73779;SDS011;62093;37.614;15.072;2023-12-14T13:24:44;5.22;;;2.33;;
73779;SDS011;62093;37.614;15.072;2023-12-14T13:27:11;5.73;;;2.67;;
73779;SDS011;62093;37.614;15.072;2023-12-14T13:29:37;4.90;;;2.22;;
73779;SDS011;62093;37.614;15.072;2023-12-14T13:32:03;5.45;;;2.70;;
73779;SDS011;62093;37.614;15.072;2023-12-14T13:34:29;4.93;;;2.13;;
73779;SDS011;62093;37.614;15.072;2023-12-14T13:36:56;4.93;;;2.58;;
73779;SDS011;62093;37.614;15.072;2023-12-14T13:39:22;5.27;;;2.57;;
73779;SDS011;62093;37.614;15.072;2023-12-14T13:41:48;4.43;;;2.20;;
73779;SDS011;62093;37.614;15.072;2023-12-14T13:44:15;5.20;;;2.28;;
73779;SDS011;62093;37.614;15.072;2023-12-14T13:46:40;5.22;;;2.20;;
73779;SDS011;62093;37.614;15.072;2023-12-14T13:49:06;4.72;;;2.33;;
73779;SDS011;62093;37.614;15.072;2023-12-14T13:51:32;5.07;;;2.70;;
73779;SDS011;62093;37.614;15.072;2023-12-14T13:53:59;4.80;;;2.50;;
73779;SDS011;62093;37.614;15.072;2023-12-14T13:56:25;5.03;;;2.53;;
73779;SDS011;62093;37.614;15.072;2023-12-14T13:58:51;4.75;;;2.20;;
73779;SDS011;62093;37.614;15.072;2023-12-14T14:01:17;5.10;;;2.80;;
73779;SDS011;62093;37.614;15.072;2023-12-14T14:03:44;4.70;;;2.40;;
73779;SDS011;62093;37.614;15.072;2023-12-14T14:06:12;5.07;;;2.55;;
73779;SDS011;62093;37.614;15.072;2023-12-14T14:08:39;5.35;;;2.63;;
73779;SDS011;62093;37.614;15.072;2023-12-14T14:11:05;5.60;;;2.60;;
73779;SDS011;62093;37.614;15.072;2023-12-14T14:13:31;5.05;;;2.50;;
73779;SDS011;62093;37.614;15.072;2023-12-14T14:15:58;5.28;;;2.55;;
73779;SDS011;62093;37.614;15.072;2023-12-14T14:18:24;6.43;;;2.97;;
73779;SDS011;62093;37.614;15.072;2023-12-14T14:20:50;5.30;;;2.73;;
73779;SDS011;62093;37.614;15.072;2023-12-14T14:23:16;4.97;;;2.67;;
73779;SDS011;62093;37.614;15.072;2023-12-14T14:25:42;4.63;;;2.10;;
73779;SDS011;62093;37.614;15.072;2023-12-14T14:28:08;5.70;;;2.47;;
73779;SDS011;62093;37.614;15.072;2023-12-14T14:30:34;5.30;;;2.60;;
73779;SDS011;62093;37.614;15.072;2023-12-14T14:33:01;5.63;;;2.15;;
73779;SDS011;62093;37.614;15.072;2023-12-14T14:35:27;5.85;;;2.40;;
73779;SDS011;62093;37.614;15.072;2023-12-14T14:37:54;4.70;;;2.38;;